Time;durP1;ratioP1;P1;durP2;ratioP2;P2;SDS_P1;SDS_P2;PMS_P1;PMS_P2;Temp;Humidity;BMP_temperature;BMP_pressure;BME280_temperature;BME280_humidity;BME280_pressure;Samples;Min_cycle;Max_cycle;Signal;HPM_P1;HPM_P2
2021/07/24 00:00:24;;;;;;;8.57;6.15;;;22.60;44.50;;;;;;5035314;28;20044;-67
2021/07/24 00:02:50;;;;;;;10.50;6.80;;;22.60;44.50;;;;;;5035227;28;20021;-66
2021/07/24 00:05:16;;;;;;;7.72;6.03;;;22.60;44.60;;;;;;5035130;28;20108;-66
2021/07/24 00:07:41;;;;;;;7.45;5.90;;;22.50;44.80;;;;;;5034435;28;20025;-66
2021/07/24 00:10:07;;;;;;;8.73;6.25;;;22.50;44.90;;;;;;5035098;28;20033;-68
2021/07/24 00:12:33;;;;;;;8.05;6.50;;;22.40;45.00;;;;;;5035044;28;20486;-67
2021/07/24 00:14:59;;;;;;;8.15;6.07;;;22.40;44.80;;;;;;5034974;28;20021;-67
2021/07/24 00:17:25;;;;;;;7.13;5.60;;;22.40;44.90;;;;;;5034890;28;20037;-67
2021/07/24 00:19:51;;;;;;;10.55;5.90;;;22.40;45.10;;;;;;5015212;28;20080;-66
2021/07/24 00:22:17;;;;;;;11.50;6.15;;;22.40;45.20;;;;;;5019449;28;20025;-66
2021/07/24 00:24:42;;;;;;;7.60;6.10;;;22.40;45.10;;;;;;5034714;28;20498;-66
2021/07/24 00:27:09;;;;;;;8.70;6.38;;;22.30;45.20;;;;;;5034701;28;20376;-66
2021/07/24 00:29:38;;;;;;;10.55;6.60;;;22.30;45.20;;;;;;5033847;28;20026;-66
2021/07/24 00:32:05;;;;;;;13.90;6.50;;;22.20;45.80;;;;;;5034553;28;20567;-67
2021/07/24 00:34:31;;;;;;;8.82;6.00;;;22.20;45.50;;;;;;5033508;28;20402;-67
2021/07/24 00:36:58;;;;;;;7.75;5.88;;;22.20;45.60;;;;;;5034620;28;20026;-66
2021/07/24 00:39:24;;;;;;;10.82;6.35;;;22.20;45.60;;;;;;5034605;28;20100;-67
2021/07/24 00:42:16;;;;;;;10.27;5.72;;;22.10;45.90;;;;;;5034010;28;20025;-66
2021/07/24 00:44:45;;;;;;;8.27;6.50;;;22.10;45.80;;;;;;5034422;28;20021;-67
2021/07/24 00:47:16;;;;;;;8.48;6.05;;;22.10;45.80;;;;;;5033121;28;20487;-67
2021/07/24 00:49:44;;;;;;;9.20;6.90;;;22.10;46.00;;;;;;5034447;28;20139;-67
2021/07/24 00:52:10;;;;;;;8.75;6.47;;;22.10;46.10;;;;;;5034790;28;20460;-67
2021/07/24 00:54:39;;;;;;;8.63;5.97;;;22.00;46.10;;;;;;5032977;28;20479;-67
2021/07/24 00:57:05;;;;;;;9.70;6.47;;;22.00;46.10;;;;;;5014483;28;20387;-67
2021/07/24 00:59:31;;;;;;;10.32;6.90;;;22.00;46.40;;;;;;5014535;28;20080;-67
2021/07/24 01:01:57;;;;;;;9.75;6.38;;;22.00;46.20;;;;;;5014426;28;20446;-67
2021/07/24 01:04:22;;;;;;;8.90;6.53;;;22.00;46.80;;;;;;5026878;28;20373;-67
2021/07/24 01:06:49;;;;;;;8.05;6.00;;;22.00;46.80;;;;;;5035210;28;20364;-66
2021/07/24 01:09:16;;;;;;;9.93;7.00;;;21.90;46.90;;;;;;5034109;28;20386;-67
2021/07/24 01:11:42;;;;;;;9.02;6.78;;;21.90;46.90;;;;;;5034218;28;20100;-67
2021/07/24 01:14:09;;;;;;;9.40;6.85;;;21.90;47.00;;;;;;5034156;28;20018;-67
2021/07/24 01:16:35;;;;;;;8.65;5.95;;;21.90;47.00;;;;;;5033814;28;20029;-67
2021/07/24 01:19:01;;;;;;;8.10;6.15;;;21.80;46.90;;;;;;5033958;28;20383;-67
2021/07/24 01:21:28;;;;;;;11.25;6.38;;;21.80;47.20;;;;;;5033872;28;20075;-67
2021/07/24 01:23:54;;;;;;;7.68;6.13;;;21.80;47.20;;;;;;5033608;28;20388;-67
2021/07/24 01:26:29;;;;;;;9.25;6.35;;;21.80;47.40;;;;;;5032273;28;20064;-67
2021/07/24 01:28:56;;;;;;;9.43;6.70;;;21.70;47.50;;;;;;5032257;28;20026;-67
2021/07/24 01:31:23;;;;;;;15.07;6.40;;;21.70;47.30;;;;;;5033602;28;20541;-67
2021/07/24 01:33:49;;;;;;;8.68;6.43;;;21.70;47.50;;;;;;5032843;28;20050;-67
2021/07/24 01:36:15;;;;;;;8.00;6.22;;;21.70;47.50;;;;;;5033584;28;20383;-67
2021/07/24 01:38:42;;;;;;;8.63;6.22;;;21.70;47.70;;;;;;5033586;28;20025;-66
2021/07/24 01:41:12;;;;;;;7.97;6.28;;;21.70;47.70;;;;;;5032249;28;20387;-67
2021/07/24 01:43:38;;;;;;;10.35;5.97;;;21.70;47.80;;;;;;5033355;28;20032;-67
2021/07/24 01:46:05;;;;;;;8.88;6.15;;;21.60;47.70;;;;;;5031913;28;20437;-66
2021/07/24 01:48:37;;;;;;;8.32;5.63;;;21.60;47.70;;;;;;5033188;28;20475;-67
2021/07/24 01:53:51;;;;;;;9.98;6.88;;;21.60;48.00;;;;;;5033437;28;20559;-67
2021/07/24 01:56:21;;;;;;;7.85;6.32;;;21.60;48.30;;;;;;5032814;28;20026;-67
2021/07/24 01:58:47;;;;;;;11.50;7.88;;;21.60;48.30;;;;;;5033203;28;20112;-67
2021/07/24 02:01:15;;;;;;;9.65;6.80;;;21.60;48.50;;;;;;5033051;28;20104;-67
2021/07/24 02:03:45;;;;;;;9.10;6.75;;;21.50;48.60;;;;;;5031393;28;20407;-67
2021/07/24 02:06:17;;;;;;;11.13;7.45;;;21.50;48.90;;;;;;5031499;28;20033;-67
2021/07/24 02:08:50;;;;;;;17.75;8.00;;;21.50;49.90;;;;;;5032888;28;20025;-67
2021/07/24 02:11:17;;;;;;;10.00;7.23;;;21.50;50.50;;;;;;5032956;28;20032;-67
2021/07/24 02:13:43;;;;;;;11.50;7.55;;;21.50;50.30;;;;;;5032817;28;20529;-67
2021/07/24 02:16:09;;;;;;;10.80;7.85;;;21.50;50.60;;;;;;5032591;28;20022;-67
2021/07/24 02:18:36;;;;;;;15.10;7.63;;;21.50;51.00;;;;;;5032705;28;20108;-67
2021/07/24 02:21:02;;;;;;;18.30;8.65;;;21.50;51.10;;;;;;5032565;28;20021;-67
2021/07/24 02:23:28;;;;;;;11.55;8.05;;;21.40;50.90;;;;;;5032541;28;20447;-65
2021/07/24 02:25:54;;;;;;;10.85;7.53;;;21.40;50.90;;;;;;5032306;28;20076;-65
2021/07/24 02:28:20;;;;;;;12.98;7.75;;;21.40;50.80;;;;;;5032463;28;20022;-65
2021/07/24 02:30:46;;;;;;;9.60;6.97;;;21.30;50.80;;;;;;5032508;28;20022;-65
2021/07/24 02:33:12;;;;;;;11.40;7.35;;;21.30;51.00;;;;;;5031449;28;20411;-65
2021/07/24 02:35:38;;;;;;;11.00;7.32;;;21.30;51.00;;;;;;5032458;28;20410;-65
2021/07/24 02:38:06;;;;;;;11.68;7.03;;;21.20;51.20;;;;;;5032387;28;20025;-65
2021/07/24 02:40:32;;;;;;;10.82;8.10;;;21.20;51.10;;;;;;5031064;28;20083;-65
2021/07/24 02:42:58;;;;;;;13.25;8.25;;;21.20;51.50;;;;;;5032194;28;20017;-65
2021/07/24 02:45:24;;;;;;;10.73;7.70;;;21.20;51.90;;;;;;5032220;28;20041;-65
2021/07/24 02:47:50;;;;;;;11.45;8.27;;;21.20;51.70;;;;;;5032376;28;20096;-65
2021/07/24 02:50:16;;;;;;;10.48;7.15;;;21.10;51.90;;;;;;5032265;28;20110;-65
2021/07/24 02:52:42;;;;;;;11.07;7.55;;;21.10;51.70;;;;;;5032282;28;20017;-66
2021/07/24 02:55:08;;;;;;;11.27;8.07;;;21.10;51.90;;;;;;5032017;28;20021;-65
2021/07/24 02:57:34;;;;;;;22.17;13.77;;;21.00;52.20;;;;;;5032249;28;20063;-66
2021/07/24 03:00:00;;;;;;;14.40;8.73;;;21.00;52.50;;;;;;5032239;28;20569;-66
2021/07/24 03:02:26;;;;;;;10.43;8.07;;;21.00;52.60;;;;;;5032212;28;20075;-66
2021/07/24 03:04:52;;;;;;;16.27;8.80;;;21.00;52.70;;;;;;5031901;28;20465;-66
2021/07/24 03:07:17;;;;;;;22.50;9.18;;;21.00;53.00;;;;;;5031916;28;20033;-66
2021/07/24 03:09:43;;;;;;;11.75;8.50;;;20.90;53.50;;;;;;5032011;28;20475;-66
2021/07/24 03:12:10;;;;;;;11.05;8.63;;;20.90;53.20;;;;;;5031978;28;20076;-66
2021/07/24 03:14:35;;;;;;;10.77;7.05;;;20.90;53.10;;;;;;5031722;28;20025;-65
2021/07/24 03:17:01;;;;;;;13.65;8.13;;;20.90;52.80;;;;;;5031888;28;20025;-66
2021/07/24 03:19:27;;;;;;;10.85;7.18;;;20.80;52.60;;;;;;5030554;28;20439;-67
2021/07/24 03:21:53;;;;;;;12.95;9.00;;;20.80;52.60;;;;;;5031923;28;20034;-66
2021/07/24 03:24:18;;;;;;;10.60;8.18;;;20.80;52.90;;;;;;5031770;28;20033;-66
2021/07/24 03:26:44;;;;;;;13.18;7.80;;;20.80;53.00;;;;;;5017825;28;20088;-66
2021/07/24 03:29:10;;;;;;;12.20;7.93;;;20.70;52.80;;;;;;5011971;28;20030;-66
2021/07/24 03:31:36;;;;;;;12.48;8.40;;;20.70;53.00;;;;;;5010653;28;20103;-65
2021/07/24 03:34:02;;;;;;;10.90;7.78;;;20.70;53.10;;;;;;5019062;28;20056;-65
2021/07/24 03:36:28;;;;;;;16.52;8.02;;;20.70;53.00;;;;;;5031702;28;20387;-66
2021/07/24 03:38:53;;;;;;;10.50;7.13;;;20.70;53.00;;;;;;5031704;28;20435;-66
2021/07/24 03:41:19;;;;;;;12.70;7.88;;;20.60;52.90;;;;;;5031669;28;20372;-66
2021/07/24 03:43:45;;;;;;;11.45;7.07;;;20.60;53.10;;;;;;5030162;28;20026;-66
2021/07/24 03:46:19;;;;;;;11.90;8.45;;;20.60;53.10;;;;;;5031491;28;20025;-66
2021/07/24 03:48:45;;;;;;;9.82;7.53;;;20.60;53.50;;;;;;5031684;28;20076;-66
2021/07/24 03:51:12;;;;;;;11.73;8.63;;;20.60;53.50;;;;;;5032029;28;20083;-66
2021/07/24 03:53:39;;;;;;;12.43;8.80;;;20.60;53.60;;;;;;5031461;28;20025;-66
2021/07/24 03:56:05;;;;;;;12.93;8.02;;;20.60;53.70;;;;;;5031492;28;20026;-66
2021/07/24 03:58:31;;;;;;;21.88;9.55;;;20.60;53.60;;;;;;5031146;28;20026;-66
2021/07/24 04:00:57;;;;;;;21.77;9.15;;;20.60;53.80;;;;;;5031551;28;20493;-66
2021/07/24 04:03:25;;;;;;;16.40;8.85;;;20.60;54.10;;;;;;5030998;28;20089;-68
2021/07/24 04:05:52;;;;;;;14.55;8.68;;;20.60;54.70;;;;;;5034637;28;20108;-66
2021/07/24 04:08:18;;;;;;;10.55;8.13;;;20.60;54.50;;;;;;5034788;28;20491;-65
2021/07/24 04:10:45;;;;;;;22.70;9.00;;;20.60;54.50;;;;;;5034967;28;20429;-65
2021/07/24 04:13:11;;;;;;;19.60;9.18;;;20.70;54.50;;;;;;5034898;28;20026;-65
2021/07/24 04:15:38;;;;;;;36.25;9.60;;;20.70;54.70;;;;;;5034927;28;20494;-66
2021/07/24 04:18:06;;;;;;;12.18;8.75;;;20.70;54.70;;;;;;5034837;28;20034;-66
2021/07/24 04:20:32;;;;;;;15.82;8.15;;;20.70;54.70;;;;;;5034803;28;20026;-67
2021/07/24 04:22:58;;;;;;;15.63;8.32;;;20.70;54.30;;;;;;5034870;28;20036;-67
2021/07/24 04:25:24;;;;;;;11.85;8.10;;;20.80;54.20;;;;;;5034630;28;20032;-67
2021/07/24 04:27:49;;;;;;;12.77;7.80;;;20.80;54.30;;;;;;5034649;28;20026;-67
2021/07/24 04:30:15;;;;;;;10.05;7.05;;;20.80;54.40;;;;;;5034607;28;20036;-67
2021/07/24 04:32:41;;;;;;;11.10;7.50;;;20.90;54.20;;;;;;5034675;28;20442;-67
2021/07/24 04:35:07;;;;;;;12.20;8.38;;;20.90;54.00;;;;;;5033889;28;20100;-67
2021/07/24 04:37:33;;;;;;;11.45;8.15;;;20.90;54.10;;;;;;5034920;28;20380;-67
2021/07/24 04:39:58;;;;;;;11.80;8.48;;;21.00;54.30;;;;;;5034605;28;20032;-67
2021/07/24 04:42:24;;;;;;;16.50;9.50;;;21.00;54.50;;;;;;5034463;28;20033;-67
2021/07/24 04:44:50;;;;;;;15.93;7.78;;;21.00;54.40;;;;;;5033144;28;20072;-67
2021/07/24 04:47:16;;;;;;;12.13;7.57;;;21.10;54.20;;;;;;5034361;28;20418;-67
2021/07/24 04:49:48;;;;;;;19.23;8.85;;;21.10;54.10;;;;;;5034313;28;20014;-67
2021/07/24 04:52:14;;;;;;;9.95;7.53;;;21.10;54.30;;;;;;5034233;28;20029;-67
2021/07/24 04:54:41;;;;;;;10.90;7.50;;;21.20;54.00;;;;;;5034200;28;20025;-67
2021/07/24 04:57:07;;;;;;;16.50;7.88;;;21.20;53.80;;;;;;5034110;28;20061;-66
2021/07/24 04:59:36;;;;;;;11.57;7.95;;;21.30;53.80;;;;;;5034322;28;20025;-67
2021/07/24 05:02:02;;;;;;;15.95;8.52;;;21.40;53.90;;;;;;5034251;28;20026;-66
2021/07/24 05:04:28;;;;;;;13.52;9.00;;;21.40;53.70;;;;;;5033985;28;20052;-67
2021/07/24 05:06:56;;;;;;;12.82;8.57;;;21.50;53.90;;;;;;5016620;28;20037;-65
2021/07/24 05:09:22;;;;;;;14.50;8.52;;;21.50;53.80;;;;;;5013877;28;20033;-66
2021/07/24 05:11:48;;;;;;;17.13;8.30;;;21.60;53.70;;;;;;5013835;28;20499;-65
2021/07/24 05:14:13;;;;;;;10.25;7.63;;;21.60;53.50;;;;;;5013907;28;20025;-65
2021/07/24 05:16:39;;;;;;;16.42;8.70;;;21.70;53.30;;;;;;5013620;28;20038;-66
2021/07/24 05:19:06;;;;;;;10.77;8.15;;;21.70;53.30;;;;;;5014141;28;20025;-65
2021/07/24 05:21:32;;;;;;;13.13;8.00;;;21.80;53.20;;;;;;5013972;28;20036;-65
2021/07/24 05:23:58;;;;;;;17.48;7.93;;;21.80;53.10;;;;;;5013976;28;20054;-65
2021/07/24 05:26:23;;;;;;;18.17;8.50;;;21.90;53.00;;;;;;5013769;28;20566;-66
2021/07/24 05:28:49;;;;;;;17.83;9.35;;;21.90;52.90;;;;;;5031093;28;20419;-65
2021/07/24 05:31:18;;;;;;;17.02;9.65;;;22.00;52.70;;;;;;5033219;28;20383;-66
2021/07/24 05:33:44;;;;;;;15.02;9.68;;;22.10;52.40;;;;;;5031231;28;20065;-66
2021/07/24 05:36:10;;;;;;;18.58;9.73;;;22.10;52.30;;;;;;5033139;28;20736;-65
2021/07/24 05:38:37;;;;;;;16.27;9.77;;;22.20;52.30;;;;;;5033269;28;20554;-65
2021/07/24 05:41:03;;;;;;;14.98;9.48;;;22.20;52.20;;;;;;5033245;28;20119;-66
2021/07/24 05:43:29;;;;;;;15.52;9.10;;;22.30;52.00;;;;;;5031945;28;20071;-65
2021/07/24 05:45:55;;;;;;;14.13;9.05;;;22.30;51.80;;;;;;5033343;28;20029;-65
2021/07/24 05:48:21;;;;;;;1654.75;179.20;;;22.40;51.80;;;;;;5033140;28;20024;-66
2021/07/24 05:50:47;;;;;;;603.20;68.13;;;22.50;51.90;;;;;;5033278;28;20033;-65
2021/07/24 05:53:12;;;;;;;274.67;28.75;;;22.50;52.00;;;;;;5031886;28;20026;-66
2021/07/24 05:55:38;;;;;;;63.20;14.23;;;22.60;51.80;;;;;;5033119;28;20064;-65
2021/07/24 05:58:08;;;;;;;141.68;17.98;;;22.70;51.60;;;;;;5032846;28;20025;-66
2021/07/24 06:00:33;;;;;;;24.23;10.32;;;22.70;51.50;;;;;;5033075;28;20106;-65
2021/07/24 06:02:59;;;;;;;18.48;10.15;;;22.80;51.30;;;;;;5032653;28;20072;-66
2021/07/24 06:05:25;;;;;;;18.83;10.10;;;22.90;51.20;;;;;;5032840;28;20037;-66
2021/07/24 06:07:51;;;;;;;16.67;10.10;;;23.00;51.10;;;;;;5032896;28;20419;-66
2021/07/24 06:10:16;;;;;;;21.52;11.75;;;23.10;50.80;;;;;;5032691;28;20036;-66
2021/07/24 06:12:47;;;;;;;20.70;12.30;;;23.10;50.30;;;;;;5032785;28;20072;-66
2021/07/24 06:15:12;;;;;;;25.65;12.50;;;23.20;50.20;;;;;;5031276;28;20676;-66
2021/07/24 06:17:38;;;;;;;20.13;12.40;;;23.30;50.00;;;;;;5032665;28;20056;-66
2021/07/24 06:20:05;;;;;;;24.85;13.48;;;23.30;50.00;;;;;;5032655;28;20033;-66
2021/07/24 06:22:30;;;;;;;40.45;12.85;;;23.30;49.80;;;;;;5032539;28;20108;-67
2021/07/24 06:24:56;;;;;;;26.33;13.60;;;23.40;49.70;;;;;;5031132;28;20480;-67
2021/07/24 06:27:22;;;;;;;28.10;12.27;;;23.40;49.70;;;;;;5031699;28;20032;-66
2021/07/24 06:29:48;;;;;;;1093.57;143.82;;;23.50;49.70;;;;;;5032451;28;20052;-67
2021/07/24 06:32:14;;;;;;;272.77;38.97;;;23.60;49.80;;;;;;5032243;28;20513;-67
2021/07/24 06:34:39;;;;;;;54.40;15.13;;;23.70;49.80;;;;;;5031585;28;20037;-67
2021/07/24 06:37:06;;;;;;;22.33;12.43;;;23.70;49.50;;;;;;5032375;28;20029;-67
2021/07/24 06:39:32;;;;;;;21.23;11.60;;;23.80;49.50;;;;;;5032263;28;20017;-67
2021/07/24 06:41:58;;;;;;;18.50;10.73;;;23.90;49.20;;;;;;5032355;28;20080;-67
2021/07/24 06:44:24;;;;;;;26.60;12.40;;;23.90;49.00;;;;;;5032302;28;20363;-66
2021/07/24 06:46:49;;;;;;;16.25;10.80;;;24.00;48.90;;;;;;5032312;28;20052;-66
2021/07/24 06:49:15;;;;;;;25.92;13.35;;;24.00;48.90;;;;;;5032264;28;20032;-67
2021/07/24 06:51:41;;;;;;;23.70;12.85;;;24.10;48.70;;;;;;5031301;28;20096;-66
2021/07/24 06:54:07;;;;;;;19.83;11.70;;;24.10;48.50;;;;;;5032166;28;20069;-66
2021/07/24 06:56:33;;;;;;;24.73;11.50;;;24.20;48.60;;;;;;5032174;28;20026;-66
2021/07/24 06:58:59;;;;;;;21.98;10.68;;;24.20;48.50;;;;;;5031860;28;20022;-66
2021/07/24 07:01:24;;;;;;;27.15;12.35;;;24.30;48.40;;;;;;5032026;28;20030;-66
2021/07/24 07:03:50;;;;;;;20.90;12.55;;;24.30;48.60;;;;;;5030472;28;20021;-66
2021/07/24 07:06:16;;;;;;;18.63;11.35;;;24.40;48.40;;;;;;5031878;28;20029;-66
2021/07/24 07:08:42;;;;;;;20.42;11.70;;;24.40;48.40;;;;;;5032189;28;20025;-66
2021/07/24 07:11:08;;;;;;;25.33;12.18;;;24.50;48.20;;;;;;5031929;28;20029;-66
2021/07/24 07:13:34;;;;;;;20.25;12.82;;;24.60;48.00;;;;;;5031950;28;20108;-66
2021/07/24 07:16:03;;;;;;;19.33;11.27;;;24.70;47.90;;;;;;5031904;28;20026;-66
2021/07/24 07:18:29;;;;;;;17.73;11.13;;;24.70;47.80;;;;;;5031868;28;20024;-66
2021/07/24 07:20:55;;;;;;;32.55;13.18;;;24.80;47.80;;;;;;5030589;28;20406;-66
2021/07/24 07:23:20;;;;;;;23.30;11.88;;;24.90;47.50;;;;;;5030400;28;20029;-67
2021/07/24 07:25:46;;;;;;;17.95;10.05;;;25.00;47.10;;;;;;5030209;28;20021;-67
2021/07/24 07:28:12;;;;;;;22.08;9.52;;;25.00;47.40;;;;;;5031608;28;20021;-66
2021/07/24 07:30:38;;;;;;;19.80;9.63;;;25.10;47.20;;;;;;5022913;28;20029;-66
2021/07/24 07:33:04;;;;;;;24.63;10.35;;;25.20;46.70;;;;;;5011629;28;20054;-67
2021/07/24 07:35:29;;;;;;;17.05;9.38;;;25.30;46.70;;;;;;5031445;28;20235;-67
2021/07/24 07:37:56;;;;;;;16.35;9.32;;;25.30;46.60;;;;;;5032275;28;20505;-66
2021/07/24 07:40:22;;;;;;;14.02;9.45;;;25.50;46.40;;;;;;5034287;28;20064;-67
2021/07/24 07:42:48;;;;;;;13.52;8.93;;;25.50;46.30;;;;;;5035503;28;20041;-66
2021/07/24 07:45:14;;;;;;;15.95;8.85;;;25.60;46.40;;;;;;5035343;28;20032;-66
2021/07/24 07:47:40;;;;;;;15.35;10.07;;;25.60;46.20;;;;;;5035399;28;20033;-66
2021/07/24 07:50:07;;;;;;;14.82;9.55;;;25.70;45.80;;;;;;5035523;28;20132;-66
2021/07/24 07:52:33;;;;;;;18.80;8.93;;;25.80;45.90;;;;;;5035569;28;20022;-66
2021/07/24 07:55:00;;;;;;;19.20;10.05;;;25.90;45.60;;;;;;5034046;28;20026;-67
2021/07/24 07:57:26;;;;;;;17.52;10.45;;;25.90;45.20;;;;;;5035467;28;20025;-66
2021/07/24 07:59:53;;;;;;;14.68;9.30;;;26.00;44.90;;;;;;5035316;28;20037;-66
2021/07/24 08:02:18;;;;;;;16.88;9.35;;;26.10;44.60;;;;;;5035329;28;20387;-67
2021/07/24 08:04:44;;;;;;;34.15;11.77;;;26.10;44.80;;;;;;5034870;28;20029;-67
2021/07/24 08:07:10;;;;;;;29.20;11.63;;;26.20;44.60;;;;;;5034858;28;20026;-67
2021/07/24 08:09:36;;;;;;;24.15;11.18;;;26.30;44.30;;;;;;5035223;28;20028;-67
2021/07/24 08:12:02;;;;;;;17.95;10.15;;;26.30;44.40;;;;;;5035014;28;20410;-67
2021/07/24 08:14:28;;;;;;;23.05;10.77;;;26.40;44.50;;;;;;5035049;28;20021;-67
2021/07/24 08:16:54;;;;;;;21.38;10.48;;;26.50;44.30;;;;;;5034967;28;20475;-67
2021/07/24 08:19:19;;;;;;;18.02;9.77;;;26.60;44.40;;;;;;5034878;28;20112;-67
2021/07/24 08:21:45;;;;;;;15.65;9.30;;;26.60;43.70;;;;;;5034877;28;20032;-67
2021/07/24 08:24:11;;;;;;;13.88;9.20;;;26.70;43.80;;;;;;5034920;28;20124;-67
2021/07/24 08:26:36;;;;;;;15.77;9.10;;;26.80;43.10;;;;;;5034786;28;20100;-67
2021/07/24 08:29:03;;;;;;;15.27;8.63;;;26.80;42.90;;;;;;5034708;28;20014;-67
2021/07/24 08:31:28;;;;;;;16.08;9.70;;;26.90;42.90;;;;;;5018957;28;20393;-67
2021/07/24 08:33:54;;;;;;;12.95;8.75;;;27.00;42.20;;;;;;5020349;28;20042;-67
2021/07/24 08:36:20;;;;;;;16.17;9.27;;;27.10;42.80;;;;;;5034653;28;20475;-67
2021/07/24 08:38:46;;;;;;;13.52;8.55;;;27.10;42.30;;;;;;5034566;28;20026;-67
2021/07/24 08:41:15;;;;;;;16.35;9.38;;;27.20;42.00;;;;;;5034589;28;20017;-67
2021/07/24 08:43:44;;;;;;;13.05;8.23;;;27.30;42.20;;;;;;5034393;28;20021;-67
2021/07/24 08:46:11;;;;;;;17.52;8.95;;;27.40;41.90;;;;;;5034351;28;20022;-67
2021/07/24 08:48:38;;;;;;;16.10;8.52;;;27.50;42.00;;;;;;5034384;28;20028;-67
2021/07/24 08:51:05;;;;;;;12.15;8.30;;;27.50;42.00;;;;;;5033576;28;20117;-67
2021/07/24 08:53:35;;;;;;;13.13;8.50;;;27.60;41.60;;;;;;5034359;28;20053;-67
2021/07/24 08:56:04;;;;;;;13.70;8.63;;;27.70;41.60;;;;;;5034220;28;20018;-67
2021/07/24 08:58:34;;;;;;;14.13;9.63;;;27.80;41.80;;;;;;5034240;28;20481;-68
2021/07/24 09:01:01;;;;;;;11.93;8.60;;;27.80;41.00;;;;;;5034029;28;20022;-67
2021/07/24 09:03:31;;;;;;;15.70;10.63;;;27.90;41.30;;;;;;5033862;28;20053;-67
2021/07/24 09:05:57;;;;;;;16.75;11.48;;;28.00;40.90;;;;;;5033898;28;20148;-68
2021/07/24 09:08:27;;;;;;;17.10;11.77;;;28.00;41.10;;;;;;5033887;28;20121;-67
2021/07/24 09:10:53;;;;;;;12.27;9.75;;;28.10;40.90;;;;;;5034017;28;20029;-67
2021/07/24 09:13:19;;;;;;;15.32;10.27;;;28.10;41.10;;;;;;5033876;28;20021;-67
2021/07/24 09:15:46;;;;;;;13.45;9.52;;;28.20;41.30;;;;;;5033776;28;20022;-67
2021/07/24 09:18:12;;;;;;;10.73;8.52;;;28.30;41.60;;;;;;5033793;28;20028;-67
2021/07/24 09:20:41;;;;;;;11.95;8.63;;;28.30;41.50;;;;;;5033787;28;20406;-67
2021/07/24 09:23:27;;;;;;;10.75;8.98;;;28.40;41.40;;;;;;5033473;28;20471;-67
2021/07/24 09:25:53;;;;;;;13.23;8.93;;;28.50;41.40;;;;;;5033586;28;20025;-67
2021/07/24 09:28:18;;;;;;;11.02;9.05;;;28.60;41.00;;;;;;5033491;28;20419;-66
2021/07/24 09:30:44;;;;;;;12.75;8.05;;;28.60;41.20;;;;;;5032047;28;20022;-67
2021/07/24 09:33:12;;;;;;;15.63;10.20;;;28.70;41.20;;;;;;5032718;28;20531;-67
2021/07/24 09:35:38;;;;;;;9.95;7.68;;;28.70;40.50;;;;;;5033495;28;20030;-67
2021/07/24 09:38:14;;;;;;;12.07;7.85;;;28.80;40.90;;;;;;5033434;28;20048;-67
2021/07/24 09:40:42;;;;;;;11.68;8.80;;;28.80;40.90;;;;;;5033278;28;20025;-67
2021/07/24 09:43:29;;;;;;;13.07;8.02;;;28.90;40.50;;;;;;5033231;28;20028;-67
2021/07/24 09:46:14;;;;;;;15.40;9.38;;;29.00;40.70;;;;;;5031929;28;20033;-67
2021/07/24 09:48:52;;;;;;;12.95;8.30;;;29.10;40.60;;;;;;5031914;28;20111;-67
2021/07/24 09:51:37;;;;;;;12.32;7.35;;;29.20;40.10;;;;;;5033242;28;20104;-67
2021/07/24 09:54:05;;;;;;;10.52;8.05;;;29.20;40.70;;;;;;5033107;28;20026;-67
2021/07/24 09:56:44;;;;;;;14.57;8.02;;;29.40;40.30;;;;;;5038919;28;20024;-67
2021/07/24 09:59:18;;;;;;;13.13;7.75;;;29.40;40.20;;;;;;5051644;28;20029;-67
2021/07/24 10:01:51;;;;;;;11.23;7.43;;;29.40;40.00;;;;;;5038554;28;20481;-67
2021/07/24 10:04:25;;;;;;;11.02;8.95;;;29.60;39.70;;;;;;5032622;28;20025;-67
2021/07/24 10:06:55;;;;;;;12.77;7.38;;;29.60;39.50;;;;;;5032764;28;20545;-67
2021/07/24 10:09:29;;;;;;;11.20;8.20;;;29.70;39.90;;;;;;5032843;28;20029;-67
2021/07/24 10:12:02;;;;;;;21.25;9.07;;;29.80;39.70;;;;;;5032893;28;20494;-67
2021/07/24 10:14:29;;;;;;;12.88;8.77;;;29.90;39.10;;;;;;5032738;28;20060;-67
2021/07/24 10:16:58;;;;;;;10.13;8.10;;;29.90;38.80;;;;;;5032651;28;20078;-67
2021/07/24 10:19:25;;;;;;;10.55;7.53;;;30.00;39.00;;;;;;5032667;28;20036;-67
2021/07/24 10:21:53;;;;;;;9.30;8.02;;;30.10;38.70;;;;;;5032562;28;20384;-66
2021/07/24 10:24:20;;;;;;;8.70;6.97;;;30.10;38.80;;;;;;5032504;28;20022;-67
2021/07/24 10:27:04;;;;;;;11.20;8.43;;;30.20;39.80;;;;;;5032493;28;20387;-66
2021/07/24 10:29:35;;;;;;;10.23;7.38;;;30.20;38.70;;;;;;5032538;28;20028;-66
2021/07/24 10:32:03;;;;;;;10.65;7.95;;;30.30;38.10;;;;;;5030938;28;20043;-67
2021/07/24 10:34:31;;;;;;;12.80;8.50;;;30.40;38.20;;;;;;5031615;28;20036;-66
2021/07/24 10:36:57;;;;;;;14.40;8.13;;;30.40;38.00;;;;;;5039969;28;20021;-67
2021/07/24 10:39:24;;;;;;;10.13;7.60;;;30.50;37.60;;;;;;5051950;28;20027;-67
2021/07/24 10:41:58;;;;;;;9.90;7.35;;;30.60;37.70;;;;;;5045600;28;20112;-67
2021/07/24 10:44:42;;;;;;;10.10;7.47;;;30.70;37.40;;;;;;5019671;28;20029;-67
2021/07/24 10:47:09;;;;;;;10.63;7.53;;;30.70;37.70;;;;;;5017717;28;20033;-67
2021/07/24 10:49:35;;;;;;;9.98;7.55;;;30.90;37.90;;;;;;5020251;28;20018;-67
2021/07/24 10:52:09;;;;;;;10.13;7.75;;;30.90;37.20;;;;;;5024675;28;20045;-67
2021/07/24 10:54:59;;;;;;;10.40;7.82;;;31.00;37.10;;;;;;5020803;28;20028;-67
2021/07/24 10:57:43;;;;;;;10.85;8.55;;;31.10;37.20;;;;;;5017935;28;20231;-67
2021/07/24 11:00:18;;;;;;;10.60;8.35;;;31.20;36.80;;;;;;5021985;28;20109;-67
2021/07/24 11:02:45;;;;;;;12.63;6.95;;;31.30;36.70;;;;;;5020821;28;20368;-67
2021/07/24 11:05:23;;;;;;;11.32;7.88;;;31.40;35.90;;;;;;5024383;28;20074;-67
2021/07/24 11:07:50;;;;;;;14.43;6.78;;;31.50;35.20;;;;;;5022646;28;20026;-67
2021/07/24 11:10:16;;;;;;;13.45;6.95;;;31.50;35.20;;;;;;5023880;28;20476;-67
2021/07/24 11:12:43;;;;;;;8.77;7.38;;;31.60;35.70;;;;;;5025130;28;20032;-68
2021/07/24 11:15:10;;;;;;;10.88;8.02;;;31.60;35.80;;;;;;5030402;28;20030;-67
2021/07/24 11:17:37;;;;;;;8.15;7.07;;;31.70;35.40;;;;;;5030754;28;20021;-67
2021/07/24 11:20:05;;;;;;;8.65;7.20;;;31.70;35.30;;;;;;5031264;28;20479;-67
2021/07/24 11:22:32;;;;;;;9.32;6.53;;;31.80;35.30;;;;;;5024339;28;20037;-67
2021/07/24 11:24:58;;;;;;;9.25;7.13;;;31.80;35.30;;;;;;5026421;28;20034;-67
2021/07/24 11:27:29;;;;;;;11.65;7.60;;;31.80;34.80;;;;;;5029518;28;20026;-67
2021/07/24 11:30:04;;;;;;;9.43;7.32;;;31.80;35.30;;;;;;5031075;28;20422;-67
2021/07/24 11:32:36;;;;;;;8.77;6.90;;;31.90;35.20;;;;;;5028286;28;20038;-67
2021/07/24 11:35:05;;;;;;;9.35;7.15;;;31.90;35.10;;;;;;5050842;28;20466;-67
2021/07/24 11:37:39;;;;;;;12.88;7.65;;;31.90;35.30;;;;;;5025189;28;20034;-67
2021/07/24 11:40:13;;;;;;;8.23;6.90;;;31.90;35.30;;;;;;5024658;28;20041;-67
2021/07/24 11:42:44;;;;;;;11.13;8.18;;;32.00;35.20;;;;;;5031562;28;20483;-67
2021/07/24 11:45:19;;;;;;;10.13;8.02;;;32.00;34.80;;;;;;5030803;28;20113;-67
2021/07/24 11:47:45;;;;;;;10.43;7.93;;;32.00;34.30;;;;;;5030506;28;20022;-67
2021/07/24 11:50:18;;;;;;;10.02;6.70;;;32.00;34.60;;;;;;5035941;28;20087;-67
2021/07/24 11:52:51;;;;;;;8.60;6.70;;;32.10;34.70;;;;;;5037444;28;20474;-67
2021/07/24 11:55:27;;;;;;;10.52;6.82;;;32.10;34.90;;;;;;5037971;28;20394;-67
2021/07/24 11:58:07;;;;;;;11.63;7.75;;;32.20;34.50;;;;;;5037990;28;20057;-67
2021/07/24 12:00:38;;;;;;;11.25;7.45;;;32.20;34.90;;;;;;5037927;28;20060;-67
2021/07/24 12:03:20;;;;;;;11.50;7.75;;;32.30;34.70;;;;;;5037621;28;20368;-67
2021/07/24 12:05:50;;;;;;;11.25;8.38;;;32.30;34.20;;;;;;5038031;28;20021;-67
2021/07/24 12:08:19;;;;;;;11.10;7.72;;;32.30;34.10;;;;;;5038084;28;20582;-67
2021/07/24 12:10:48;;;;;;;13.75;8.45;;;32.40;34.70;;;;;;5038017;28;20021;-68
2021/07/24 12:13:19;;;;;;;10.73;7.78;;;32.40;34.30;;;;;;5037865;28;20045;-67
2021/07/24 12:16:05;;;;;;;7.45;6.63;;;32.50;34.00;;;;;;5037986;28;20071;-67
2021/07/24 12:18:44;;;;;;;9.15;7.40;;;32.60;33.60;;;;;;5038129;28;20061;-67
2021/07/24 12:21:16;;;;;;;9.05;7.38;;;32.70;33.70;;;;;;5037879;28;20027;-68
2021/07/24 12:23:56;;;;;;;12.80;7.90;;;32.80;32.70;;;;;;5037840;28;20029;-67
2021/07/24 12:26:28;;;;;;;8.98;7.93;;;32.90;32.70;;;;;;5033940;28;20025;-67
2021/07/24 12:28:56;;;;;;;8.80;7.10;;;33.00;32.20;;;;;;5034736;28;20071;-67
2021/07/24 12:31:30;;;;;;;11.77;6.97;;;33.10;32.60;;;;;;5034734;28;20032;-67
2021/07/24 12:34:14;;;;;;;9.30;7.57;;;33.20;33.00;;;;;;5033567;28;20073;-67
2021/07/24 12:36:56;;;;;;;13.23;7.00;;;33.30;32.50;;;;;;5033680;28;20368;-67
2021/07/24 12:39:23;;;;;;;8.70;7.10;;;33.40;32.50;;;;;;5034576;28;20042;-67
2021/07/24 12:42:08;;;;;;;8.65;7.20;;;33.50;32.30;;;;;;5034745;28;20048;-68